EDT,Max TemperatureF,Mean TemperatureF,Min TemperatureF,Max Dew PointF,MeanDew PointF,Min DewpointF,Max Humidity, Mean Humidity, Min Humidity, Max Sea Level PressureIn, Mean Sea Level PressureIn, Min Sea Level PressureIn, Max VisibilityMiles, Mean VisibilityMiles, Min VisibilityMiles, Max Wind SpeedMPH, Mean Wind SpeedMPH, Max Gust SpeedMPH,PrecipitationIn, CloudCover, Events, WindDirDegrees
2013-8-1,79,71,62,67,64,59,93,81,68,29.94,29.83,29.75,10,8,2,29,6,38,0.28,7,Rain-Thunderstorm,188
2013-8-2,77,70,62,63,59,55,93,73,53,29.89,29.85,29.82,10,10,9,23,6,29,0.02,6,Rain-Thunderstorm,250
2013-8-3,77,70,62,63,58,51,93,70,46,29.89,29.86,29.80,10,10,9,20,9,26,0.04,6,Rain,260
2013-8-4,73,67,61,61,56,52,90,72,53,30.01,29.93,29.88,10,10,10,23,11,32,T,6,Rain,268
2013-8-5,76,64,52,54,51,49,89,65,41,30.09,30.05,30.02,10,10,10,13,4,29,0.00,4,,303
2013-8-6,80,66,51,58,54,49,96,70,43,30.07,30.04,30.02,10,10,10,15,6,18,0.00,5,,125
2013-8-7,79,73,66,66,62,57,78,71,64,30.03,29.99,29.92,10,10,10,20,11,26,0.00,7,,160
2013-8-8,88,79,70,73,67,63,94,72,50,29.97,29.93,29.90,10,10,6,12,4,15,0.14,7,Rain,195
2013-8-9,79,73,66,72,69,62,100,87,73,29.89,29.85,29.81,10,10,7,15,5,20,0.12,8,Rain,277
2013-8-10,73,65,57,60,54,46,84,63,41,30.08,30.01,29.90,10,10,10,20,9,25,0.00,4,,273
2013-8-11,77,65,52,57,53,49,89,68,46,30.12,30.07,30.03,10,10,10,14,4,17,0.00,3,,275
2013-8-12,81,70,58,62,58,55,87,66,45,30.04,29.97,29.86,10,10,10,12,4,18,0.00,6,,185
2013-8-13,79,68,57,65,60,50,93,78,63,29.82,29.77,29.70,10,8,2,22,9,29,0.69,7,Rain,247
2013-8-14,70,63,56,55,51,48,86,70,53,30.04,29.90,29.80,10,10,10,21,13,29,T,7,Rain,267
2013-8-15,76,65,54,54,51,49,83,62,41,30.12,30.08,30.05,10,10,10,14,9,23,0.00,3,,261
2013-8-16,77,65,53,55,52,50,89,65,41,30.21,30.16,30.11,10,10,10,13,4,15,0.00,3,,261
2013-8-17,81,67,53,60,55,50,93,68,42,30.30,30.26,30.22,10,10,10,9,2,10,0.00,3,,89
2013-8-18,80,69,58,61,58,56,90,69,48,30.26,30.19,30.10,10,10,10,8,2,16,0.00,6,,65
2013-8-19,83,71,59,62,58,55,90,65,40,30.10,30.06,30.01,10,10,10,13,4,17,T,5,,282
2013-8-20,85,72,58,63,60,57,93,68,43,30.12,30.09,30.04,10,10,7,15,4,21,0.00,1,,248
2013-8-21,87,74,61,63,61,58,90,66,42,30.16,30.10,30.01,10,9,7,12,4,15,0.00,2,,181
2013-8-22,88,76,64,70,66,60,100,75,50,30.01,29.93,29.86,10,7,1,28,7,35,0.39,6,Rain-Thunderstorm,255
2013-8-23,76,67,58,68,59,56,100,77,53,30.19,30.06,29.96,10,8,2,15,5,20,0.00,3,,316
2013-8-24,78,65,52,56,53,50,100,71,41,30.35,30.30,30.21,10,10,10,10,2,16,0.00,2,,344
2013-8-25,83,69,54,59,55,51,93,64,34,30.35,30.26,30.12,10,10,10,17,6,23,0.01,5,Rain,184
2013-8-26,78,73,67,70,66,61,97,83,68,30.11,29.98,29.91,10,8,2,13,7,,0.51,8,Rain,250
2013-8-27,84,75,66,70,68,65,100,81,61,29.95,29.91,29.86,10,6,0,7,2,9,T,7,Fog-Rain,187
2013-8-28,88,77,66,71,68,65,93,70,46,29.91,29.86,29.82,10,8,4,15,3,20,T,5,Fog-Rain,41
2013-8-29,86,75,64,70,66,63,93,72,51,30.03,29.98,29.91,10,9,5,17,4,21,0.00,3,Fog,291
2013-8-30,87,75,62,69,63,61,93,69,44,29.99,29.89,29.77,10,10,7,14,4,17,0.19,4,Fog-Rain,196
2013-8-31,84,77,70,71,69,67,97,81,65,29.85,29.76,29.72,10,9,2,14,7,18,0.20,7,Rain,279